Weather observations for the past three days for
Arcata / Eureka, Arcata Airport
Metric (Imperial)
Date Time (pdt) Wind (kph) Vis. (km) Weather Sky Cond. Temperature (ºC) Relative Humidity Wind Chill (°C) Heat Index (°C) Pressure Precipitation (cm)
Air Dwpt 6 hour altimeter (cm) sea level (mb) 1 hr 3 hr 6 hr
Max. Min.
01 23:53 E 7 16.09 Fair CLR 11.1 10.6 97% 76.1 1015.1
01 22:53 Calm 16.09 A Few Clouds FEW090 12.2 11.7 17.8 12.2 97% 76.12 1015.2
01 21:53 Calm 12.87 Partly Cloudy SCT080 13.9 11.7 87% 76.1 1014.9
01 20:53 E 7 16.09 Overcast OVC080 16.1 11.7 75% 76.07 1014.5
01 19:53 S 13 16.09 Overcast OVC075 16.1 11.7 75% 76.07 1014.5
01 18:53 S 13 16.09 Overcast SCT041 BKN049 OVC075 15.6 12.8 84% 76.07 1014.6
01 17:53 S 17 16.09 Overcast OVC040 16.7 12.2 75% 76.07 1014.8
01 16:53 SW 15 16.09 Fair CLR 18.3 12.2 21.1 15.6 68% 76.07 1014.6 0.03
01 15:53 W 19 16.09 Overcast FEW027 BKN032 OVC070 18.9 13.3 70% 76.07 1014.5
01 14:53 E 9 16.09 Overcast OVC049 18.9 13.3 70% 76.1 1014.8
01 12:53 SE 7 11.27 Overcast SCT026 OVC032 15.6 13.3 86% 76.12 1015.3
01 11:53 SW 9 11.27 Light Rain OVC026 15.6 13.3 86% 76.12 1015.4
01 10:53 SW 13 16.09 Overcast OVC041 17.8 13.3 17.8 14.4 75% 76.07 1014.7
01 09:53 SW 11 16.09 Overcast SCT009 BKN036 OVC050 16.7 13.9 84% 76.05 1014.4
01 08:53 SW 17 16.09 Overcast SCT007 BKN012 OVC029 15 13.9 93% 76.05 1014.3
01 07:53 S 9 16.09 Overcast SCT004 BKN008 OVC028 15 14.4 96% 76.02 1013.9
01 06:53 Calm 8.05 Fog/Mist OVC005 14.4 13.9 97% 76 1013.4
01 05:53 Calm 6.44 Fog/Mist SCT004 BKN007 OVC035 14.4 13.9 97% 75.97 1013.2
01 04:53 Calm 16.09 Overcast OVC036 15 13.9 15.6 14.4 93% 75.97 1013.3
01 03:53 Calm 12.87 Overcast BKN006 OVC035 15 13.9 93% 75.97 1013.3
01 02:53 E 6 14.48 Overcast FEW012 OVC031 15 13.9 93% 76 1013.4
01 01:53 Calm 11.27 Overcast SCT005 OVC031 15 13.9 93% 76 1013.5
01 00:53 Calm 12.87 Overcast BKN004 OVC029 14.4 13.9 97% 76 1013.5
31 23:53 Calm 8.05 Fog/Mist FEW006 OVC030 14.4 13.9 97% 76 1013.5
31 22:53 Calm 12.87 Overcast OVC029 15.6 13.9 16.7 15 90% 76 1013.8
31 21:53 Calm 14.48 Overcast OVC029 15.6 13.9 90% 76.02 1014.0
31 20:53 W 7 11.27 Overcast OVC026 15 13.3 90% 76.02 1013.8
31 19:53 Calm 16.09 Overcast OVC025 15.6 13.9 90% 76 1013.5
31 18:53 NW 6 14.48 Overcast OVC027 15.6 13.9 90% 76 1013.5
31 17:53 Calm 16.09 Overcast OVC027 16.1 13.9 87% 76 1013.5
31 16:53 SW 13 16.09 Overcast OVC026 16.7 13.9 18.9 16.1 84% 76 1013.5
31 15:53 SW 13 16.09 Overcast OVC025 16.7 13.9 84% 76.02 1013.9
31 14:53 SW 19 16.09 Overcast OVC026 17.2 13.9 81% 76.02 1014.1
31 13:53 SW 19 16.09 Overcast OVC022 16.7 13.3 80% 76.02 1014.1
31 12:53 SW 20 16.09 Overcast OVC020 18.3 12.8 70% 76.02 1013.9
31 11:53 S 17 16.09 Overcast OVC017 17.2 12.8 76% 76.02 1013.8
31 10:53 S 20 16.09 Overcast OVC014 16.7 12.2 16.7 12.2 75% 76 1013.5
31 09:53 SE 11 14.48 Overcast OVC015 15 12.2 83% 75.97 1013.5
31 08:53 SE 11 16.09 Overcast OVC014 13.9 11.7 87% 75.97 1013.4
31 07:53 SE 11 16.09 Overcast OVC013 13.3 11.7 90% 75.95 1013.0
31 06:53 SE 9 16.09 Overcast OVC010 12.8 11.7 93% 75.92 1012.4
31 05:53 SE 9 16.09 Overcast OVC009 12.8 11.1 90% 75.9 1012.3
31 04:53 E 9 14.48 Overcast OVC009 12.8 11.1 13.3 10.6 90% 75.92 1012.6
31 03:53 SE 7 16.09 Overcast OVC010 12.8 11.1 90% 75.92 1012.6
31 02:53 SE 7 16.09 Overcast OVC011 12.8 11.1 90% 75.95 1012.8
31 01:53 SE 7 16.09 Overcast OVC011 12.8 11.1 90% 75.97 1013.2
31 00:53 SE 6 16.09 Overcast OVC012 12.8 11.1 90% 76 1013.5
30 23:53 E 6 16.09 Partly Cloudy SCT013 10.6 9.4 92% 76.02 1013.9
30 22:53 E 6 16.09 Fair CLR 10.6 10 16.7 10.6 96% 76.05 1014.4
30 21:53 E 6 16.09 Fair CLR 11.7 10 89% 76.07 1014.8
30 20:53 SE 7 16.09 Fair CLR 12.2 10.6 90% 76.07 1014.7
30 19:53 Calm 16.09 Fair CLR 13.9 11.1 83% 76.05 1014.5
30 18:53 NW 9 16.09 Fair CLR 15 11.1 78% 76.05 1014.5
30 17:53 NW 9 16.09 Fair CLR 16.1 11.1 72% 76.07 1014.6
30 16:53 NW 11 16.09 Fair CLR 16.7 11.7 17.2 14.4 73% 76.1 1014.9
30 15:53 NW 13 16.09 Fair CLR 16.7 11.7 73% 76.1 1015.1
30 14:53 W 13 16.09 Fair CLR 16.1 12.2 78% 76.15 1015.5
30 13:53 W 11 16.09 A Few Clouds FEW010 16.1 12.2 78% 76.15 1015.8
30 12:53 NW 11 16.09 Mostly Cloudy BKN007 15 11.7 81% 76.17 1015.8
30 11:53 W 11 16.09 Mostly Cloudy BKN009 15.6 11.7 78% 76.17 1015.8
30 10:53 W 11 16.09 Overcast OVC009 14.4 11.7 15 8.9 84% 76.17 1016.0
30 09:53 W 6 16.09 Overcast OVC008 13.9 11.1 83% 76.15 1015.9
30 08:53 W 7 16.09 Overcast OVC010 13.3 11.1 87% 76.17 1016.2
30 07:53 Calm 16.09 Mostly Cloudy BKN011 11.1 10 93% 76.17 1016.1
30 06:53 E 6 16.09 Fair CLR 8.9 8.3 96% 76.15 1015.8
30 05:53 E 6 16.09 Fair CLR 8.9 8.3 96% 76.15 1015.8
30 04:53 NE 6 16.09 Fair CLR 11.1 10 13.9 10.6 93% 76.15 1015.8
30 03:53 E 6 16.09 Mostly Cloudy BKN011 12.2 10 87% 76.15 1015.8
30 02:53 E 11 16.09 Overcast OVC012 13.3 10.6 84% 76.17 1016.1
30 01:53 SE 6 16.09 Overcast OVC012 13.9 11.1 83% 76.2 1016.5
30 00:53 E 7 16.09 Overcast OVC014 13.3 11.1 87% 76.23 1016.8
Date Time (pdt) Wind (kph) Vis. (km) Weather Sky Cond. Air Dwpt Max. Min. Relative Humidity Wind Chill (°C) Heat Index (°C) altimeter (cm) sea level (mb) 1 hr 3 hr 6 hr
6 hour
Temperature (ºC) Pressure Precipitation (cm)